Time;durP1;ratioP1;P1;durP2;ratioP2;P2;SDS_P1;SDS_P2;PMS_P1;PMS_P2;Temp;Humidity;BMP_temperature;BMP_pressure;BME280_temperature;BME280_humidity;BME280_pressure;Samples;Min_cycle;Max_cycle;Signal;HPM_P1;HPM_P2
2022/07/04 00:01:07;;;;;;;4.47;1.52;;;;;;;10.57;100.00;101667.91;5061756;28;20390;-77
2022/07/04 00:03:32;;;;;;;5.80;1.73;;;;;;;10.60;100.00;101672.97;5057546;28;20094;-77
2022/07/04 00:05:58;;;;;;;5.88;1.77;;;;;;;10.51;100.00;101653.25;5039914;28;20068;-77
2022/07/04 00:08:23;;;;;;;4.22;1.58;;;;;;;10.62;100.00;101662.06;5040073;28;20052;-76
2022/07/04 00:10:49;;;;;;;5.85;2.05;;;;;;;10.64;100.00;101663.63;5070191;28;20098;-77
2022/07/04 00:13:15;;;;;;;5.47;1.70;;;;;;;10.63;100.00;101658.38;5049669;28;20033;-77
2022/07/04 00:15:41;;;;;;;3.95;1.38;;;;;;;10.59;100.00;101646.25;5049822;28;20041;-77
2022/07/04 00:18:06;;;;;;;4.70;1.42;;;;;;;10.60;100.00;101656.84;5060987;28;20025;-77
2022/07/04 00:20:32;;;;;;;3.35;1.65;;;;;;;10.63;100.00;101661.91;5035673;28;20513;-77
2022/07/04 00:23:00;;;;;;;3.65;1.50;;;;;;;10.61;100.00;101657.69;5059015;28;20397;-74
2022/07/04 00:25:26;;;;;;;4.57;1.70;;;;;;;10.57;100.00;101649.94;5068059;28;20357;-78
2022/07/04 00:27:51;;;;;;;6.20;1.63;;;;;;;10.66;100.00;101660.75;5049850;28;20074;-77
2022/07/04 00:30:17;;;;;;;4.13;1.40;;;;;;;10.62;100.00;101651.31;5032495;28;20097;-76
2022/07/04 00:32:42;;;;;;;2.25;1.30;;;;;;;10.67;100.00;101652.53;5031362;28;20047;-76
2022/07/04 00:35:08;;;;;;;2.25;1.20;;;;;;;10.67;100.00;101651.69;5057586;28;20068;-76
2022/07/04 00:37:34;;;;;;;2.67;1.00;;;;;;;10.60;100.00;101648.78;5044732;28;20032;-76
2022/07/04 00:39:59;;;;;;;1.17;0.68;;;;;;;10.68;100.00;101669.53;5034323;28;20051;-77
2022/07/04 00:42:25;;;;;;;0.30;0.30;;;;;;;10.67;100.00;101657.09;5059849;28;20603;-76
2022/07/04 00:44:50;;;;;;;0.30;0.30;;;;;;;10.67;100.00;101654.41;5054022;28;20057;-76
2022/07/04 00:47:16;;;;;;;0.30;0.30;;;;;;;10.63;100.00;101659.22;5051919;28;20039;-76
2022/07/04 00:49:42;;;;;;;0.30;0.30;;;;;;;10.57;100.00;101652.63;5032377;28;20033;-76
2022/07/04 00:52:07;;;;;;;0.40;0.40;;;;;;;10.54;100.00;101644.84;5048906;28;20042;-76
2022/07/04 00:54:33;;;;;;;0.30;0.30;;;;;;;10.56;100.00;101653.63;5035656;28;20032;-75
2022/07/04 00:56:59;;;;;;;0.30;0.30;;;;;;;10.55;100.00;101659.97;5065083;28;20036;-76
2022/07/04 00:59:27;;;;;;;0.30;0.30;;;;;;;10.55;100.00;101653.75;5038961;28;20055;-76
2022/07/04 01:01:53;;;;;;;0.30;0.30;;;;;;;10.59;100.00;101659.69;5038547;28;20190;-76
2022/07/04 01:04:18;;;;;;;0.30;0.30;;;;;;;10.57;100.00;101657.16;5035941;28;20025;-76
2022/07/04 01:06:47;;;;;;;0.30;0.30;;;;;;;10.60;100.00;101646.09;5064394;28;20032;-76
2022/07/04 01:09:13;;;;;;;0.30;0.30;;;;;;;10.63;100.00;101656.53;5048015;28;20025;-76
2022/07/04 01:11:38;;;;;;;0.60;0.60;;;;;;;10.63;100.00;101653.00;5050871;28;20055;-76
2022/07/04 01:14:06;;;;;;;0.30;0.30;;;;;;;10.63;100.00;101655.69;5044693;28;20090;-77
2022/07/04 01:16:32;;;;;;;0.30;0.30;;;;;;;10.60;100.00;101650.63;5050487;28;20039;-77
2022/07/04 01:18:58;;;;;;;0.30;0.30;;;;;;;10.62;100.00;101649.47;5045868;28;20469;-76
2022/07/04 01:21:23;;;;;;;0.30;0.30;;;;;;;10.59;100.00;101654.31;5044792;28;20107;-76
2022/07/04 01:23:49;;;;;;;0.40;0.40;;;;;;;10.57;100.00;101644.53;5076925;28;20028;-76
2022/07/04 01:26:14;;;;;;;0.30;0.30;;;;;;;10.59;100.00;101647.09;5070619;28;20489;-76
2022/07/04 01:28:40;;;;;;;0.30;0.30;;;;;;;10.56;100.00;101642.88;5045672;28;20041;-77
2022/07/04 01:31:06;;;;;;;0.30;0.30;;;;;;;10.53;100.00;101634.25;5058786;28;20093;-76
2022/07/04 01:33:33;;;;;;;0.30;0.30;;;;;;;10.59;100.00;101651.63;5036712;28;20443;-77
2022/07/04 01:35:59;;;;;;;0.40;0.40;;;;;;;10.62;100.00;101645.94;5031989;28;20040;-78
2022/07/04 01:38:25;;;;;;;0.30;0.30;;;;;;;10.54;100.00;101627.88;5048475;28;20363;-76
2022/07/04 01:40:50;;;;;;;0.30;0.30;;;;;;;10.62;100.00;101643.25;5051887;28;20083;-76
2022/07/04 01:43:16;;;;;;;0.30;0.30;;;;;;;10.63;100.00;101653.00;5064315;28;20013;-76
2022/07/04 01:45:41;;;;;;;0.30;0.30;;;;;;;10.60;100.00;101646.09;5060245;28;20128;-76
2022/07/04 01:48:10;;;;;;;0.30;0.30;;;;;;;10.50;100.00;101632.72;5052880;28;20024;-76
2022/07/04 01:50:35;;;;;;;0.30;0.30;;;;;;;10.59;100.00;101643.56;5068061;28;20386;-76
2022/07/04 01:53:01;;;;;;;0.30;0.30;;;;;;;10.50;100.00;101634.56;5070261;28;20484;-76
2022/07/04 01:55:28;;;;;;;0.32;0.32;;;;;;;10.53;100.00;101639.63;5033445;28;20032;-76
2022/07/04 01:57:56;;;;;;;0.30;0.30;;;;;;;10.52;100.00;101636.09;5063415;28;20085;-77
2022/07/04 02:03:06;;;;;;;0.30;0.30;;;;;;;10.52;100.00;101637.94;5071901;28;20028;-76
2022/07/04 02:05:32;;;;;;;0.43;0.43;;;;;;;10.48;100.00;101637.41;5048918;28;20482;-76
2022/07/04 02:07:57;;;;;;;0.65;0.65;;;;;;;10.49;100.00;101638.25;5047764;28;20032;-76
2022/07/04 02:10:25;;;;;;;0.45;0.45;;;;;;;10.47;100.00;101629.50;5060875;28;20462;-76
2022/07/04 02:13:03;;;;;;;0.40;0.40;;;;;;;10.47;100.00;101641.09;5055430;28;20074;-76
2022/07/04 02:15:33;;;;;;;0.30;0.30;;;;;;;10.49;100.00;101644.47;5054431;28;20123;-75
2022/07/04 02:18:00;;;;;;;0.30;0.30;;;;;;;10.50;100.00;101643.47;5059049;28;20455;-76
2022/07/04 02:20:26;;;;;;;0.30;0.30;;;;;;;10.51;100.00;101639.78;5042396;28;20040;-76
2022/07/04 02:22:52;;;;;;;0.30;0.30;;;;;;;10.53;100.00;101645.88;5052490;28;20032;-76
2022/07/04 02:25:17;;;;;;;0.30;0.30;;;;;;;10.54;100.00;101641.34;5064571;28;20032;-76
2022/07/04 02:27:43;;;;;;;1.75;1.17;;;;;;;10.55;100.00;101648.38;5047574;28;20119;-76
2022/07/04 02:30:09;;;;;;;0.30;0.30;;;;;;;10.55;100.00;101637.63;5049109;28;20465;-76
2022/07/04 02:32:35;;;;;;;0.30;0.30;;;;;;;10.52;100.00;101625.34;5048240;28;20043;-76
2022/07/04 02:35:01;;;;;;;0.43;0.43;;;;;;;10.52;100.00;101635.25;5035521;28;20398;-76
2022/07/04 02:37:27;;;;;;;0.35;0.35;;;;;;;10.49;100.00;101631.03;5049753;28;20043;-76
2022/07/04 02:39:53;;;;;;;1.00;1.00;;;;;;;10.52;100.00;101641.47;5049241;28;20899;-76
2022/07/04 02:42:19;;;;;;;0.30;0.30;;;;;;;10.48;100.00;101628.50;5049972;28;20607;-75
2022/07/04 02:44:45;;;;;;;0.40;0.40;;;;;;;10.48;100.00;101636.56;5042649;28;20474;-75
2022/07/04 02:47:11;;;;;;;1.05;1.05;;;;;;;10.51;100.00;101641.66;5050251;28;20114;-77
2022/07/04 02:49:36;;;;;;;0.30;0.30;;;;;;;10.52;100.00;101635.25;5051695;28;20561;-76
2022/07/04 02:52:03;;;;;;;0.30;0.30;;;;;;;10.51;100.00;101630.88;5048140;28;20059;-75
2022/07/04 02:54:28;;;;;;;0.30;0.30;;;;;;;10.51;100.00;101628.19;5034459;28;20040;-75
2022/07/04 02:56:54;;;;;;;0.30;0.30;;;;;;;10.51;100.00;101631.72;5048806;28;20370;-75
2022/07/04 02:59:19;;;;;;;0.30;0.30;;;;;;;10.51;100.00;101631.72;5037021;28;20093;-75
2022/07/04 03:01:45;;;;;;;0.30;0.30;;;;;;;10.54;100.00;101636.78;5053667;28;20029;-75
2022/07/04 03:04:11;;;;;;;0.38;0.38;;;;;;;10.41;100.00;101614.81;5042299;28;20033;-78
2022/07/04 03:06:36;;;;;;;0.40;0.40;;;;;;;10.52;100.00;101633.41;5062784;28;20033;-78
2022/07/04 03:09:02;;;;;;;0.40;0.40;;;;;;;10.54;100.00;101633.25;5041310;28;20033;-77
2022/07/04 03:11:28;;;;;;;0.30;0.30;;;;;;;10.50;100.00;101632.72;5064450;28;20020;-77
2022/07/04 03:13:53;;;;;;;0.40;0.40;;;;;;;10.54;100.00;101644.84;5030944;28;20045;-76
2022/07/04 03:16:19;;;;;;;0.30;0.30;;;;;;;10.54;100.00;101649.41;5057342;28;20474;-77
2022/07/04 03:18:48;;;;;;;0.30;0.30;;;;;;;10.51;100.00;101637.09;5037589;28;20030;-74
2022/07/04 03:21:14;;;;;;;0.30;0.30;;;;;;;10.42;100.00;101624.56;5064195;28;20037;-77
2022/07/04 03:23:39;;;;;;;0.30;0.30;;;;;;;10.48;100.00;101633.88;5032661;28;20126;-76
2022/07/04 03:26:05;;;;;;;0.30;0.30;;;;;;;10.45;100.00;101629.66;5045599;28;20175;-77
2022/07/04 03:28:30;;;;;;;0.40;0.40;;;;;;;10.45;100.00;101640.41;5071857;28;20032;-75
2022/07/04 03:30:56;;;;;;;0.30;0.30;;;;;;;10.44;100.00;101641.41;5034580;28;20020;-75
2022/07/04 03:33:22;;;;;;;0.40;0.40;;;;;;;10.42;100.00;101638.00;5049130;28;20029;-78
2022/07/04 03:35:47;;;;;;;0.40;0.40;;;;;;;10.42;100.00;101638.00;5065187;28;20588;-74
2022/07/04 03:38:13;;;;;;;0.40;0.40;;;;;;;10.43;100.00;101649.63;5077797;28;20036;-76
2022/07/04 03:40:38;;;;;;;0.30;0.30;;;;;;;10.39;100.00;101648.25;5051229;28;20047;-77
2022/07/04 03:43:06;;;;;;;0.30;0.30;;;;;;;10.36;100.00;101640.47;5043670;28;20301;-77
2022/07/04 03:45:32;;;;;;;0.30;0.30;;;;;;;10.44;100.00;101652.16;5032912;28;20175;-77
2022/07/04 03:47:58;;;;;;;0.30;0.30;;;;;;;10.42;100.00;101640.69;5042846;28;20395;-77
2022/07/04 03:50:23;;;;;;;0.45;0.45;;;;;;;10.42;100.00;101642.53;5067584;28;20043;-78
2022/07/04 03:52:49;;;;;;;0.30;0.30;;;;;;;10.44;100.00;101645.94;5039790;28;20031;-77
2022/07/04 03:55:15;;;;;;;0.30;0.30;;;;;;;10.43;100.00;101647.78;5047633;28;20041;-77
2022/07/04 03:57:40;;;;;;;0.30;0.30;;;;;;;10.41;100.00;101641.72;5053383;28;20398;-76
2022/07/04 04:00:07;;;;;;;0.30;0.30;;;;;;;10.40;100.00;101633.78;5059149;28;20033;-77
2022/07/04 04:02:33;;;;;;;1.08;0.68;;;;;;;10.41;100.00;101636.34;5048093;28;20036;-77
2022/07/04 04:07:43;;;;;;;0.30;0.30;;;;;;;10.41;100.00;101638.19;5070522;28;20036;-74
2022/07/04 04:10:09;;;;;;;0.30;0.30;;;;;;;10.46;100.00;101652.84;5066175;28;20024;-77
2022/07/04 04:12:35;;;;;;;0.30;0.30;;;;;;;10.47;100.00;101654.53;5068143;28;20040;-75
2022/07/04 04:15:01;;;;;;;0.30;0.30;;;;;;;10.49;100.00;101660.59;5033250;28;20043;-75
2022/07/04 04:17:27;;;;;;;0.30;0.30;;;;;;;10.50;100.00;101659.59;5044086;28;20039;-77
2022/07/04 04:19:52;;;;;;;0.32;0.32;;;;;;;10.51;100.00;101658.63;5062518;28;20028;-77
2022/07/04 04:22:18;;;;;;;0.40;0.40;;;;;;;10.51;100.00;101653.25;5064298;28;20033;-75
2022/07/04 04:24:44;;;;;;;0.30;0.30;;;;;;;10.47;100.00;101651.00;5055626;28;20119;-77
2022/07/04 04:27:09;;;;;;;0.30;0.30;;;;;;;10.42;100.00;101650.63;5043681;28;20036;-77
2022/07/04 04:29:35;;;;;;;0.30;0.30;;;;;;;10.39;100.00;101648.25;5065443;28;20025;-76
2022/07/04 04:32:01;;;;;;;0.30;0.30;;;;;;;10.40;100.00;101652.59;5036246;28;20028;-76
2022/07/04 04:34:26;;;;;;;0.40;0.40;;;;;;;10.41;100.00;101657.84;5057150;28;20025;-76
2022/07/04 04:36:52;;;;;;;0.30;0.30;;;;;;;10.41;100.00;101651.63;5070813;28;20024;-76
2022/07/04 04:39:17;;;;;;;0.30;0.30;;;;;;;10.45;100.00;101655.69;5051524;28;20082;-77
2022/07/04 04:41:43;;;;;;;0.38;0.38;;;;;;;10.46;100.00;101650.16;5073464;28;20096;-76
2022/07/04 04:44:09;;;;;;;0.30;0.30;;;;;;;10.49;100.00;101660.59;5040616;28;20036;-76
2022/07/04 04:46:34;;;;;;;0.30;0.30;;;;;;;10.51;100.00;101658.63;5062715;28;20028;-76
2022/07/04 04:49:00;;;;;;;0.30;0.30;;;;;;;10.54;100.00;101669.06;5040395;28;20090;-76
2022/07/04 04:51:25;;;;;;;0.38;0.38;;;;;;;10.55;100.00;101665.38;5039612;28;20029;-77
2022/07/04 04:53:51;;;;;;;0.30;0.30;;;;;;;10.53;100.00;101651.25;5035356;28;20042;-76
2022/07/04 04:56:17;;;;;;;0.30;0.30;;;;;;;10.64;100.00;101657.38;5047410;28;20373;-76
2022/07/04 04:58:42;;;;;;;0.30;0.30;;;;;;;10.67;100.00;101665.16;5054330;28;20480;-76
2022/07/04 05:01:08;;;;;;;0.30;0.30;;;;;;;10.70;100.00;101672.91;5038424;28;20028;-76
2022/07/04 05:03:33;;;;;;;0.30;0.30;;;;;;;10.75;100.00;101667.91;5054971;28;20055;-77
2022/07/04 05:05:59;;;;;;;0.40;0.40;;;;;;;10.76;100.00;101661.53;5081172;28;20044;-77
2022/07/04 05:08:25;;;;;;;0.30;0.30;;;;;;;10.81;100.00;101667.28;5034231;28;20025;-77
2022/07/04 05:10:52;;;;;;;0.30;0.30;;;;;;;10.89;100.00;101664.66;5058507;28;20381;-77
2022/07/04 05:13:18;;;;;;;0.40;0.40;;;;;;;10.98;100.00;101663.75;5051200;28;20033;-76
2022/07/04 05:15:43;;;;;;;0.30;0.30;;;;;;;11.03;100.00;101668.63;5070030;28;20032;-77
2022/07/04 05:18:09;;;;;;;0.30;0.30;;;;;;;11.07;100.00;101661.09;5050115;28;20032;-77
2022/07/04 05:20:35;;;;;;;0.30;0.30;;;;;;;11.08;100.00;101663.63;5034433;28;20421;-76
2022/07/04 05:23:00;;;;;;;0.40;0.40;;;;;;;11.16;100.00;101660.16;5036021;28;20466;-76
2022/07/04 05:25:26;;;;;;;0.30;0.30;;;;;;;11.29;100.00;101682.13;5057535;28;20039;-76
2022/07/04 05:27:52;;;;;;;0.30;0.30;;;;;;;11.28;100.00;101683.13;5051441;28;20219;-76
2022/07/04 05:30:17;;;;;;;0.30;0.30;;;;;;;11.23;100.00;101670.13;5022033;28;20122;-76
2022/07/04 05:32:43;;;;;;;0.30;0.30;;;;;;;11.24;100.00;101679.03;5049991;28;20032;-76
2022/07/04 05:35:12;;;;;;;0.30;0.30;;;;;;;11.29;100.00;101692.03;5053316;28;20028;-76
2022/07/04 05:37:37;;;;;;;0.30;0.30;;;;;;;11.38;100.00;101686.56;5052982;28;20029;-76
2022/07/04 05:40:03;;;;;;;0.30;0.30;;;;;;;11.45;100.00;101694.84;5046934;28;20394;-77
2022/07/04 05:42:29;;;;;;;0.30;0.30;;;;;;;11.42;100.00;101690.63;5035538;28;20032;-76
2022/07/04 05:44:55;;;;;;;0.40;0.40;;;;;;;11.39;100.00;101690.09;5041138;28;20035;-77
2022/07/04 05:47:24;;;;;;;0.30;0.30;;;;;;;11.42;100.00;101685.22;5032163;28;20072;-76
2022/07/04 05:49:51;;;;;;;0.40;0.40;;;;;;;11.49;100.00;101687.31;5045946;28;20046;-77
2022/07/04 05:52:16;;;;;;;0.30;0.30;;;;;;;11.56;100.00;101691.88;5032231;28;20387;-76
2022/07/04 05:54:42;;;;;;;0.40;0.40;;;;;;;11.49;100.00;101673.84;5031786;28;20048;-77
2022/07/04 05:57:07;;;;;;;0.30;0.30;;;;;;;11.54;100.00;101677.75;5034987;28;20199;-77
2022/07/04 05:59:33;;;;;;;0.40;0.40;;;;;;;11.72;100.00;101691.13;5036000;28;20040;-76
2022/07/04 06:01:59;;;;;;;0.30;0.30;;;;;;;11.86;100.00;101687.88;5061084;28;20024;-76
2022/07/04 06:04:25;;;;;;;0.32;0.32;;;;;;;11.99;100.00;101694.66;5073979;28;20028;-76
2022/07/04 06:06:51;;;;;;;0.30;0.30;;;;;;;12.06;100.00;101699.22;5055541;28;20036;-76
2022/07/04 06:09:17;;;;;;;0.30;0.30;;;;;;;11.98;100.00;101703.75;5046552;28;20074;-77
2022/07/04 06:11:43;;;;;;;0.30;0.30;;;;;;;11.98;100.00;101707.28;5063232;28;20032;-76
2022/07/04 06:14:08;;;;;;;0.40;0.40;;;;;;;12.08;100.00;101702.59;5047228;28;20025;-77
2022/07/04 06:16:34;;;;;;;0.40;0.40;;;;;;;12.21;100.00;101694.06;5050816;28;20036;-77
2022/07/04 06:19:00;;;;;;;0.35;0.35;;;;;;;12.25;100.00;101698.13;5032967;28;20040;-77
2022/07/04 06:21:25;;;;;;;0.30;0.30;;;;;;;12.35;100.00;101697.13;5032378;28;20515;-76
2022/07/04 06:23:51;;;;;;;0.40;0.40;;;;;;;12.43;100.00;101700.69;5067509;28;20029;-78
2022/07/04 06:26:17;;;;;;;0.30;0.30;;;;;;;12.60;100.00;101696.19;5032711;28;20037;-77
2022/07/04 06:28:42;;;;;;;0.40;0.40;;;;;;;12.75;100.00;101702.63;5061973;28;20592;-77
2022/07/04 06:31:08;;;;;;;0.30;0.30;;;;;;;12.84;100.00;101697.22;5061591;28;20482;-76
2022/07/04 06:35:44;;;;;;;0.30;0.30;;;;;;;12.93;100.00;101691.66;5047646;28;20036;-76
2022/07/04 06:36:19;;;;;;;0.40;0.40;;;;;;;13.07;100.00;101700.94;5069959;28;20539;-77
2022/07/04 06:38:45;;;;;;;0.30;0.30;;;;;;;13.20;100.00;101698.56;5058660;28;20025;-75
2022/07/04 06:41:11;;;;;;;0.30;0.30;;;;;;;13.26;100.00;101696.19;5043487;28;20038;-76
2022/07/04 06:43:36;;;;;;;0.35;0.35;;;;;;;13.38;100.00;101703.81;5030087;28;20032;-75
2022/07/04 06:46:02;;;;;;;0.40;0.40;;;;;;;13.49;100.00;101710.69;5033497;28;20037;-76
2022/07/04 06:48:30;;;;;;;0.30;0.30;;;;;;;13.62;100.00;101704.78;5046385;28;20032;-76
2022/07/04 06:50:56;;;;;;;0.40;0.40;;;;;;;13.74;100.00;101699.84;5053679;28;20103;-77
2022/07/04 06:53:21;;;;;;;0.40;0.40;;;;;;;14.05;100.00;101700.75;5043877;28;20146;-75
2022/07/04 06:55:48;;;;;;;0.40;0.40;;;;;;;14.18;100.00;101700.16;5038291;28;20082;-75
2022/07/04 06:58:14;;;;;;;0.40;0.40;;;;;;;15.23;100.00;101702.34;5042845;28;20028;-75
2022/07/04 07:00:41;;;;;;;0.40;0.40;;;;;;;15.24;100.00;101705.88;5056183;28;20313;-76
2022/07/04 07:03:07;;;;;;;0.30;0.30;;;;;;;15.01;100.00;101700.53;5056939;28;20496;-75
2022/07/04 07:05:36;;;;;;;0.40;0.40;;;;;;;14.90;100.00;101704.50;5036345;28;20457;-75
2022/07/04 07:08:05;;;;;;;0.30;0.30;;;;;;;14.71;100.00;101697.69;5055591;28;20478;-76
2022/07/04 07:10:35;;;;;;;0.35;0.35;;;;;;;14.43;100.00;101702.75;5015675;28;20033;-76
2022/07/04 07:13:04;;;;;;;0.30;0.30;;;;;;;14.32;100.00;101705.88;5052747;28;20029;-78
2022/07/04 07:15:35;;;;;;;0.30;0.30;;;;;;;14.30;100.00;101712.28;5015197;28;20123;-78
2022/07/04 07:18:04;;;;;;;0.30;0.30;;;;;;;14.17;100.00;101717.41;5013130;28;20073;-78
2022/07/04 07:20:30;;;;;;;0.30;0.30;;;;;;;13.87;100.00;101721.78;5049798;28;20067;-77
2022/07/04 07:22:56;;;;;;;0.30;0.30;;;;;;;13.66;100.00;101726.91;5013489;28;20783;-77
2022/07/04 07:25:21;;;;;;;0.30;0.30;;;;;;;13.49;100.00;101726.06;5020409;28;20044;-75
2022/07/04 07:27:49;;;;;;;0.63;0.43;;;;;;;13.40;100.00;101723.38;5031025;28;20517;-77
2022/07/04 07:30:15;;;;;;;0.40;0.40;;;;;;;13.44;100.00;101710.38;5034579;28;20028;-77
2022/07/04 07:32:43;;;;;;;0.30;0.30;;;;;;;13.53;100.00;101739.06;5027893;28;20106;-76
2022/07/04 07:35:09;;;;;;;0.30;0.30;;;;;;;13.70;100.00;101730.94;5040667;28;20143;-77
2022/07/04 07:37:34;;;;;;;0.85;0.40;;;;;;;13.94;100.00;101738.97;5040271;28;20073;-77
2022/07/04 07:40:02;;;;;;;0.40;0.40;;;;;;;14.52;100.00;101737.72;5042393;28;20432;-75
2022/07/04 07:42:27;;;;;;;1.52;1.00;;;;;;;18.11;95.07;101740.59;5038910;28;20036;-76
2022/07/04 07:44:53;;;;;;;0.50;0.50;;;;;;;18.57;89.67;101739.94;5054460;28;20422;-75
2022/07/04 07:47:19;;;;;;;0.70;0.70;;;;;;;18.68;88.75;101731.16;5018757;28;20043;-75
2022/07/04 07:49:47;;;;;;;2.83;0.50;;;;;;;18.84;87.08;101741.72;5035095;28;20090;-75
2022/07/04 07:52:14;;;;;;;0.55;0.50;;;;;;;18.50;87.31;101750.84;5044222;28;20060;-76
2022/07/04 07:54:40;;;;;;;1.27;0.50;;;;;;;18.10;88.98;101738.91;5043645;28;20037;-76
2022/07/04 07:57:05;;;;;;;2.92;0.60;;;;;;;17.77;91.93;101742.25;5041288;28;20048;-76
2022/07/04 07:59:31;;;;;;;2.03;0.68;;;;;;;17.37;93.63;101747.41;5045120;28;20114;-76
2022/07/04 08:01:57;;;;;;;2.63;0.70;;;;;;;16.92;95.00;101749.50;5040945;28;20063;-75
2022/07/04 08:04:34;;;;;;;2.08;0.70;;;;;;;16.31;94.05;101755.25;5064017;28;20028;-75
2022/07/04 08:07:05;;;;;;;0.90;0.65;;;;;;;15.66;95.30;101755.97;5057786;28;20078;-75
2022/07/04 08:09:31;;;;;;;1.77;0.88;;;;;;;15.63;93.74;101751.75;5023733;28;20043;-75
2022/07/04 08:11:58;;;;;;;2.33;0.50;;;;;;;16.12;92.83;101745.00;5056075;28;20033;-78
2022/07/04 08:14:23;;;;;;;7.28;0.98;;;;;;;16.54;95.15;101748.84;5065397;28;20024;-74
2022/07/04 08:16:49;;;;;;;1.30;0.95;;;;;;;16.52;96.61;101754.47;5063711;28;20427;-74
2022/07/04 08:19:14;;;;;;;1.00;0.70;;;;;;;16.45;93.14;101761.69;5048002;28;20044;-74
2022/07/04 08:21:40;;;;;;;2.25;0.90;;;;;;;16.45;91.89;101762.53;5044877;28;20033;-78
2022/07/04 08:24:06;;;;;;;1.40;0.90;;;;;;;18.63;86.53;101767.22;5030190;28;20072;-75
2022/07/04 08:26:31;;;;;;;2.28;0.80;;;;;;;20.37;76.21;101770.75;5045400;28;20041;-74
2022/07/04 08:28:59;;;;;;;3.88;1.00;;;;;;;19.06;79.79;101771.53;5045051;28;20036;-75
2022/07/04 08:31:26;;;;;;;2.63;1.00;;;;;;;18.09;84.36;101762.56;5053453;28;20032;-74
2022/07/04 08:33:52;;;;;;;1.50;0.82;;;;;;;17.72;86.29;101763.78;5059984;28;20086;-74
2022/07/04 08:36:18;;;;;;;2.50;0.70;;;;;;;17.37;87.52;101761.00;5060921;28;20032;-74
2022/07/04 08:38:44;;;;;;;5.93;1.02;;;;;;;17.08;88.17;101741.09;5043729;28;20040;-77
2022/07/04 08:41:11;;;;;;;3.22;1.15;;;;;;;19.23;79.71;101764.63;5054777;28;20035;-79
2022/07/04 08:43:38;;;;;;;2.72;0.90;;;;;;;19.91;75.55;101749.91;5062518;28;20110;-79
2022/07/04 08:46:05;;;;;;;1.25;0.68;;;;;;;19.71;78.63;101769.03;5045822;28;20036;-80
2022/07/04 08:48:31;;;;;;;2.90;1.23;;;;;;;18.72;77.95;101745.22;5059080;28;20120;-79
2022/07/04 08:51:04;;;;;;;5.30;1.10;;;;;;;17.59;78.46;101759.91;5060869;28;20040;-83
2022/07/04 08:53:30;;;;;;;3.73;0.97;;;;;;;16.47;82.89;101746.06;5064765;28;20028;-79
2022/07/04 08:58:43;;;;;;;2.47;1.00;;;;;;;15.14;88.59;101765.75;5069765;28;20055;-79
2022/07/04 09:01:16;;;;;;;4.90;1.08;;;;;;;14.75;90.62;101788.38;5032862;28;20036;-79
2022/07/04 09:03:44;;;;;;;4.55;1.13;;;;;;;14.44;94.82;101778.31;5058690;28;20037;-82
2022/07/04 09:06:11;;;;;;;3.78;0.98;;;;;;;14.48;95.48;101766.16;5049425;28;20028;-81
2022/07/04 09:08:40;;;;;;;3.90;1.23;;;;;;;14.79;96.70;101776.16;5070453;28;20032;-81
2022/07/04 09:11:08;;;;;;;3.45;1.20;;;;;;;15.26;95.59;101779.72;5052494;28;20024;-76
2022/07/04 09:13:34;;;;;;;3.53;1.08;;;;;;;15.79;94.58;101786.03;5061095;28;20034;-77
2022/07/04 09:16:00;;;;;;;4.05;1.00;;;;;;;16.39;93.38;101790.44;5062242;28;20036;-78
2022/07/04 09:18:32;;;;;;;3.38;1.00;;;;;;;17.10;86.37;101777.06;5066575;28;20536;-78
2022/07/04 09:21:16;;;;;;;6.22;1.17;;;;;;;17.66;82.91;101781.72;5050638;28;20127;-77
2022/07/04 09:23:43;;;;;;;2.40;1.15;;;;;;;18.39;82.26;101782.22;5030408;28;20048;-78
2022/07/04 09:26:18;;;;;;;7.60;1.20;;;;;;;19.10;78.49;101761.88;5063275;28;20045;-78
2022/07/04 09:28:47;;;;;;;5.85;1.40;;;;;;;18.62;79.34;101770.97;5067120;28;20090;-80
2022/07/04 09:31:33;;;;;;;3.67;1.17;;;;;;;18.07;82.38;101777.41;5073350;28;20166;-80
2022/07/04 09:34:04;;;;;;;3.50;1.08;;;;;;;17.45;80.71;101769.00;5067544;28;20358;-82
2022/07/04 09:36:31;;;;;;;6.03;1.10;;;;;;;16.88;82.71;101786.22;5057724;28;20053;-79
2022/07/04 09:39:18;;;;;;;4.50;1.80;;;;;;;16.28;84.48;101807.22;5069083;28;20033;-78
2022/07/04 09:42:03;;;;;;;3.13;0.98;;;;;;;15.35;88.09;101798.44;5056882;28;20032;-79
2022/07/04 09:44:44;;;;;;;5.43;1.30;;;;;;;14.60;91.08;101803.66;5035694;28;20028;-80
2022/07/04 09:47:23;;;;;;;5.82;1.23;;;;;;;14.27;90.83;101807.31;5063605;28;20033;-80
2022/07/04 09:50:06;;;;;;;5.55;1.20;;;;;;;14.40;85.82;101812.19;5061872;28;20150;-79
2022/07/04 09:52:43;;;;;;;4.00;1.30;;;;;;;14.62;85.21;101799.75;5073425;28;20036;-79
2022/07/04 09:55:09;;;;;;;2.80;1.15;;;;;;;15.29;83.71;101820.81;5054032;28;20036;-79
2022/07/04 09:57:34;;;;;;;4.50;1.00;;;;;;;15.95;82.26;101812.97;5054877;28;20037;-79
2022/07/04 10:00:20;;;;;;;8.13;1.80;;;;;;;16.66;75.67;101815.19;5058899;28;20040;-80
2022/07/04 10:02:46;;;;;;;5.68;1.25;;;;;;;17.05;72.19;101793.13;5078729;28;20058;-79
2022/07/04 10:05:11;;;;;;;3.47;1.90;;;;;;;17.70;69.43;101809.38;5044111;28;20153;-80
2022/07/04 10:07:43;;;;;;;7.18;1.75;;;;;;;18.24;60.70;101806.00;5051906;28;20025;-80
2022/07/04 10:10:24;;;;;;;4.45;1.00;;;;;;;18.55;61.10;101813.69;5051431;28;20517;-80
2022/07/04 10:12:51;;;;;;;7.45;1.25;;;;;;;18.84;60.06;101807.13;5066474;28;20389;-78
2022/07/04 10:15:17;;;;;;;4.82;1.52;;;;;;;19.08;57.87;101789.38;5049795;28;20086;-78
2022/07/04 10:17:43;;;;;;;4.60;1.33;;;;;;;19.54;54.94;101812.25;5030086;28;20036;-78
2022/07/04 10:20:11;;;;;;;5.22;1.30;;;;;;;19.72;54.55;101798.88;5063831;28;20369;-78
2022/07/04 10:22:37;;;;;;;6.07;1.45;;;;;;;19.79;53.84;101798.00;5074513;28;20017;-80
2022/07/04 10:25:07;;;;;;;2.70;0.90;;;;;;;19.89;53.22;101810.16;5038053;28;20037;-78
2022/07/04 10:27:33;;;;;;;2.08;1.00;;;;;;;19.73;50.44;101811.44;5062063;28;20024;-80
2022/07/04 10:29:59;;;;;;;4.13;1.10;;;;;;;19.55;51.50;101806.63;5067454;28;20248;-80
2022/07/04 10:32:27;;;;;;;3.67;0.98;;;;;;;19.43;52.28;101810.16;5075592;28;20028;-78
2022/07/04 10:34:52;;;;;;;5.53;1.20;;;;;;;19.49;51.58;101803.88;5048350;28;20031;-77
2022/07/04 10:37:18;;;;;;;4.22;1.30;;;;;;;19.42;48.76;101814.75;5047904;28;20382;-81
2022/07/04 10:39:44;;;;;;;2.92;1.17;;;;;;;19.56;47.03;101810.19;5052450;28;20528;-77
2022/07/04 10:42:22;;;;;;;2.75;1.13;;;;;;;19.73;47.14;101819.63;5063954;28;20102;-80
2022/07/04 10:44:52;;;;;;;5.25;1.52;;;;;;;20.09;46.76;101801.13;5076203;28;20025;-78
2022/07/04 10:47:30;;;;;;;2.15;1.00;;;;;;;20.37;46.13;101825.41;5037602;28;20028;-78
2022/07/04 10:49:56;;;;;;;2.90;1.15;;;;;;;20.36;44.62;101829.19;5043315;28;20039;-79
2022/07/04 10:52:22;;;;;;;2.38;1.05;;;;;;;20.07;45.06;101827.78;5033943;28;20040;-79
2022/07/04 10:54:48;;;;;;;5.85;1.10;;;;;;;19.68;47.55;101819.41;5076284;28;20381;-79
2022/07/04 10:57:21;;;;;;;3.88;1.00;;;;;;;19.61;49.42;101823.16;5073953;28;20064;-78
2022/07/04 10:59:53;;;;;;;3.38;1.30;;;;;;;19.39;50.51;101831.56;5033401;28;20048;-78
2022/07/04 11:02:25;;;;;;;3.28;1.23;;;;;;;18.96;50.92;101828.34;5076225;28;20036;-78
2022/07/04 11:05:00;;;;;;;2.78;0.95;;;;;;;18.46;52.77;101845.69;5064360;28;20442;-78
2022/07/04 11:07:29;;;;;;;3.45;1.75;;;;;;;18.02;56.31;101856.97;5075818;28;20063;-77
2022/07/04 11:10:10;;;;;;;5.53;1.42;;;;;;;17.87;57.63;101846.16;5069438;28;20032;-81
2022/07/04 11:12:56;;;;;;;4.78;1.10;;;;;;;17.97;56.28;101838.50;5092770;28;20070;-78
2022/07/04 11:15:27;;;;;;;4.93;0.90;;;;;;;17.99;56.13;101860.91;5069572;28;20063;-81
2022/07/04 11:17:57;;;;;;;4.03;1.23;;;;;;;18.05;55.15;101855.69;5065460;28;20488;-80
2022/07/04 11:20:26;;;;;;;2.95;1.08;;;;;;;17.97;56.29;101854.00;5068027;28;20102;-81
2022/07/04 11:22:52;;;;;;;3.13;1.10;;;;;;;18.30;54.01;101862.38;5060966;28;20062;-79
2022/07/04 11:25:18;;;;;;;4.90;1.10;;;;;;;18.64;52.97;101866.13;5052401;28;20032;-80
2022/07/04 11:27:43;;;;;;;3.63;0.95;;;;;;;19.04;51.69;101872.59;5062044;28;20119;-80